Christian Reinauer — WDA6472 — position and weather

sailwx.info

Track history (hours):
 
Tides and Currents Weather Stations Pressure Air Temp Water Temp Dewpoint Dewpoint Depression Visibility Wind Speed Wind Dir Waves Ship Positions

Christian Reinauer

Owner: REINAUER TRANSPORTATION CO LLC, STATEN ISLAND, NY. More information available from US FCC via Universal Licensing System and Coast Guard Vessel Documentation Center.

Last reported at 2017-Sep-25 00:10 UTC. Time now 2017-Sep-25 00:42 UTC.
Position N 40°52' W 073°44'.

Length 172 m; draft 6.4 m.

Type: . MMSI: 366832740.

Date/timePositionNaut miles runAvg speedWind from/ knotsBaromVisibWave heightAir tempDewpointWater temp
2017-Sep-25 00:10N 40°52' W 073°44'312.1
2017-Sep-24 23:58N 40°50' W 073°46'5 9.3
2017-Sep-24 23:28N 40°48' W 073°52'4 8.1
2017-Sep-24 23:00N 40°47' W 073°56'3 6.3
2017-Sep-24 22:30N 40°44' W 073°58'3 6.2
2017-Sep-24 22:00N 40°41' W 074°01'3 6.7
2017-Sep-24 21:30N 40°39' W 074°04'3 7.0
2017-Sep-24 21:00N 40°39' W 074°08'3 6.0
2017-Sep-24 20:30N 40°38' W 074°12'3 5.3
2017-Sep-24 20:00N 40°35' W 074°13'0 0.0
2017-Sep-24 19:28N 40°35' W 074°13'0 0.0
2017-Sep-24 18:34N 40°35' W 074°13'0 0.0
2017-Sep-24 10:46N 40°35' W 074°13'0 0.0
2017-Sep-24 10:28N 40°35' W 074°13'0 0.0
2017-Sep-24 09:58N 40°35' W 074°13'0 0.0
2017-Sep-24 09:22N 40°35' W 074°13'0 0.0
2017-Sep-24 08:58N 40°35' W 074°13'0 0.0
2017-Sep-24 08:28N 40°35' W 074°13'0 0.0
2017-Sep-24 07:57N 40°35' W 074°13'0 0.0
2017-Sep-24 07:27N 40°35' W 074°13'0 0.0
2017-Sep-24 06:51N 40°35' W 074°13'0 0.0
2017-Sep-24 06:27N 40°35' W 074°13'0 0.0
2017-Sep-24 05:54N 40°35' W 074°13'0 0.0
2017-Sep-24 05:27N 40°35' W 074°13'0 0.0
2017-Sep-24 04:57N 40°35' W 074°13'0 0.0
2017-Sep-24 04:03N 40°35' W 074°13'0 0.0
2017-Sep-24 03:57N 40°35' W 074°13'0 0.0
2017-Sep-24 03:27N 40°35' W 074°13'0 0.0
2017-Sep-24 02:57N 40°35' W 074°13'0 0.0
2017-Sep-24 02:21N 40°35' W 074°13'0 0.0
2017-Sep-24 01:57N 40°35' W 074°13'0 0.0
2017-Sep-24 01:21N 40°35' W 074°13'0 0.0
2017-Sep-24 00:57N 40°35' W 074°13'0 0.0
2017-Sep-24 00:27N 40°35' W 074°13'0 0.0
2017-Sep-23 23:57N 40°35' W 074°13'0 0.0
2017-Sep-23 23:29N 40°35' W 074°13'1 1.6
2017-Sep-23 23:00N 40°34' W 074°13'3 5.2
2017-Sep-23 22:30N 40°32' W 074°15'0 0.0
2017-Sep-23 22:00N 40°32' W 074°15'0 0.0
2017-Sep-23 21:02N 40°32' W 074°15'0 0.0
2017-Sep-23 20:59N 40°32' W 074°15'0 0.0
2017-Sep-23 19:33N 40°32' W 074°15'150 3.6
2017-Sep-22 01:58N 41°48' W 071°24'0 0.0
2017-Sep-21 16:24N 41°48' W 071°24'0 0.0
2017-Sep-21 15:54N 41°48' W 071°24'1 2.3
2017-Sep-21 15:20N 41°47' W 071°23'3 9.3
2017-Sep-21 15:00N 41°44' W 071°22'610.9
2017-Sep-21 14:29N 41°39' W 071°19'810.2
2017-Sep-21 13:40N 41°31' W 071°21'48 9.9
2017-Sep-21 08:50N 41°11' W 072°18'513.9
2017-Sep-21 08:30N 41°10' W 072°24'713.6
2017-Sep-21 08:00N 41°08' W 072°33'612.8
2017-Sep-21 07:30N 41°07' W 072°41'5211.5
2017-Sep-21 03:01N 40°50' W 073°46'011.2
2017-Sep-21 02:59N 40°50' W 073°46'4 8.8
2017-Sep-21 02:30N 40°48' W 073°51'4 7.9
2017-Sep-21 01:59N 40°47' W 073°56'3 6.4
2017-Sep-21 01:30N 40°44' W 073°58'4 7.1
2017-Sep-21 01:00N 40°41' W 074°01'2 3.9
2017-Sep-21 00:30N 40°43' W 074°02'2 5.0
2017-Sep-21 00:00N 40°45' W 074°01'2 4.1
2017-Sep-20 23:30N 40°47' W 073°60'2 3.1
2017-Sep-20 23:00N 40°49' W 073°59'0 0.4
2017-Sep-20 22:30N 40°48' W 073°59'0 0.0
2017-Sep-20 22:00N 40°48' W 073°59'0 0.0
2017-Sep-20 21:30N 40°48' W 073°59'0 0.0
2017-Sep-20 21:00N 40°48' W 073°59'0 0.0
2017-Sep-20 20:30N 40°48' W 073°59'0 0.0
2017-Sep-20 20:00N 40°48' W 073°59'0 0.0
2017-Sep-20 19:30N 40°48' W 073°59'0 0.0
2017-Sep-20 19:00N 40°48' W 073°59'0 0.0
2017-Sep-20 18:30N 40°48' W 073°59'0 0.0
2017-Sep-20 18:00N 40°48' W 073°59'0 0.0
2017-Sep-20 17:30N 40°48' W 073°59'0 0.1
2017-Sep-20 17:00N 40°48' W 073°59'0 0.1
2017-Sep-20 16:30N 40°48' W 073°59'0 0.3
2017-Sep-20 16:00N 40°49' W 073°59'0 0.0
2017-Sep-20 15:30N 40°49' W 073°59'0 0.0
2017-Sep-20 15:00N 40°49' W 073°59'1 0.7
2017-Sep-20 14:00N 40°48' W 073°59'511.2
2017-Sep-20 13:30N 40°43' W 074°02'5 9.3
2017-Sep-20 13:00N 40°39' W 074°05'3 6.7
2017-Sep-20 12:30N 40°39' W 074°09'3 5.4
2017-Sep-20 12:00N 40°37' W 074°12'3 6.5
2017-Sep-20 11:30N 40°34' W 074°13'4 0.1
2017-Sep-18 21:53N 40°30' W 074°13'6 9.0
2017-Sep-18 21:16N 40°29' W 074°06'2 9.3
2017-Sep-18 21:00N 40°29' W 074°03'5 9.8
2017-Sep-18 20:30N 40°27' W 073°57'2 4.5
2017-Sep-18 20:00N 40°30' W 073°56'3 6.2
2017-Sep-18 19:30N 40°29' W 073°52'611.7
2017-Sep-18 18:59N 40°30' W 073°45'811.6
2017-Sep-18 18:16N 40°31' W 073°34'311.6
2017-Sep-18 17:59N 40°32' W 073°30'611.6
2017-Sep-18 17:28N 40°34' W 073°22'611.7
2017-Sep-18 16:58N 40°36' W 073°15'2111.7
2017-Sep-18 15:13N 40°42' W 072°49'8910.2
2017-Sep-18 06:30N 41°39' W 071°19'510.4
2017-Sep-18 05:58N 41°44' W 071°22'4 9.1
2017-Sep-18 05:30N 41°48' W 071°23'0 0.1
2017-Sep-17 22:29N 41°48' W 071°24'0 0.0
2017-Sep-17 21:46N 41°48' W 071°24'0 0.0
2017-Sep-17 21:29N 41°48' W 071°24'0 0.0
2017-Sep-17 20:58N 41°48' W 071°24'0 0.0
2017-Sep-17 01:52N 41°48' W 071°24'0 0.4
2017-Sep-17 01:29N 41°48' W 071°24'1 2.7
2017-Sep-17 00:59N 41°47' W 071°23'4 7.9
2017-Sep-17 00:30N 41°43' W 071°21'5 9.8
2017-Sep-17 00:00N 41°39' W 071°19'8 3.3
2017-Sep-16 21:33N 41°31' W 071°20'0 8.1
2017-Sep-16 21:30N 41°31' W 071°21'4 8.2
2017-Sep-16 21:00N 41°27' W 071°23'611.1
2017-Sep-16 20:30N 41°22' W 071°25'510.0
2017-Sep-16 20:01N 41°18' W 071°29'511.0
2017-Sep-16 19:31N 41°17' W 071°36'611.6
2017-Sep-16 19:01N 41°16' W 071°44'812.0
2017-Sep-16 18:21N 41°15' W 071°54'412.7
2017-Sep-16 18:00N 41°14' W 072°00'713.3
2017-Sep-16 17:30N 41°13' W 072°09'713.9
2017-Sep-16 16:58N 41°11' W 072°18'614.0
2017-Sep-16 16:31N 41°10' W 072°27'713.4
2017-Sep-16 16:01N 41°08' W 072°35'612.7
2017-Sep-16 15:30N 41°06' W 072°43'4811.4
2017-Sep-16 11:19N 40°53' W 073°44'411.0
2017-Sep-16 10:58N 40°49' W 073°47'4 8.7
2017-Sep-16 10:30N 40°48' W 073°52'4 9.0
2017-Sep-16 10:00N 40°46' W 073°57'510.9
2017-Sep-16 09:31N 40°41' W 074°01'510.0
2017-Sep-16 09:01N 40°39' W 074°06'0 0.4
2017-Sep-16 08:30N 40°39' W 074°07'0 0.0
2017-Sep-16 07:59N 40°39' W 074°07'0 0.0
2017-Sep-16 07:29N 40°39' W 074°07'0 0.0
2017-Sep-16 06:59N 40°39' W 074°07'0 0.0
2017-Sep-16 06:29N 40°39' W 074°07'0 0.0
2017-Sep-16 05:59N 40°39' W 074°07'0 0.0
2017-Sep-16 05:29N 40°39' W 074°07'0 0.0
2017-Sep-16 04:59N 40°39' W 074°07'0 0.0
2017-Sep-16 04:29N 40°39' W 074°07'0 0.1
2017-Sep-16 03:59N 40°39' W 074°07'0 0.1
2017-Sep-16 03:29N 40°39' W 074°07'0 0.0
2017-Sep-16 02:59N 40°39' W 074°07'0 0.0
2017-Sep-16 02:29N 40°39' W 074°07'0 0.0
2017-Sep-16 01:59N 40°39' W 074°07'0 0.0
2017-Sep-16 01:29N 40°39' W 074°07'0 0.0
2017-Sep-16 00:59N 40°39' W 074°07'0 0.0
2017-Sep-16 00:29N 40°39' W 074°07'0 0.0
2017-Sep-15 23:59N 40°39' W 074°07'0 0.0
2017-Sep-15 23:29N 40°39' W 074°07'0 0.0
2017-Sep-15 22:59N 40°39' W 074°07'0 0.0
2017-Sep-15 22:29N 40°39' W 074°07'0 0.0
2017-Sep-15 21:59N 40°39' W 074°07'0 0.0
2017-Sep-15 21:29N 40°39' W 074°07'0 0.0
2017-Sep-15 20:59N 40°39' W 074°07'1 1.8
2017-Sep-15 20:26N 40°38' W 074°08'0 0.0
2017-Sep-15 19:56N 40°38' W 074°08'0 0.0
2017-Sep-15 19:26N 40°38' W 074°08'0 0.0
2017-Sep-15 18:56N 40°38' W 074°08'0 0.0
2017-Sep-15 18:26N 40°38' W 074°08'0 0.0
2017-Sep-15 17:56N 40°38' W 074°08'0 0.1
2017-Sep-15 17:30N 40°39' W 074°08'1 1.7
2017-Sep-15 16:58N 40°39' W 074°07'0 0.0
2017-Sep-15 16:28N 40°39' W 074°07'0 0.0
2017-Sep-15 15:58N 40°39' W 074°07'0 0.0
2017-Sep-15 15:30N 40°39' W 074°07'0 0.0
2017-Sep-15 15:00N 40°39' W 074°07'0 0.1
2017-Sep-15 14:30N 40°39' W 074°07'2 4.2
2017-Sep-15 14:00N 40°39' W 074°04'2 4.0
2017-Sep-15 13:30N 40°37' W 074°03'0 0.8
2017-Sep-15 13:01N 40°37' W 074°03'1 1.4
2017-Sep-15 12:30N 40°36' W 074°02'1 1.1
2017-Sep-15 12:00N 40°36' W 074°03'3 5.9
2017-Sep-15 11:30N 40°39' W 074°04'3 6.8
2017-Sep-15 11:00N 40°39' W 074°09'3 5.1
2017-Sep-15 10:30N 40°38' W 074°12'2 4.8
2017-Sep-15 10:00N 40°36' W 074°12'  
Track history (hours):
 
Tides and Currents Weather Stations Pressure Air Temp Water Temp Dewpoint Dewpoint Depression Visibility Wind Speed Wind Dir Waves Ship Positions

Christian Reinauer

Owner: REINAUER TRANSPORTATION CO LLC, STATEN ISLAND, NY. More information available from US FCC via Universal Licensing System and Coast Guard Vessel Documentation Center.

Last reported at 2017-Sep-25 00:10 UTC. Time now 2017-Sep-25 00:42 UTC.
Position N 40°52' W 073°44'.

Length 172 m; draft 6.4 m.

Type: . MMSI: 366832740.

Date/timePositionNaut miles runAvg speedWind from/ knotsBaromVisibWave heightAir tempDewpointWater temp
2017-Sep-25 00:10N 40°52' W 073°44'312.1
2017-Sep-24 23:58N 40°50' W 073°46'5 9.3
2017-Sep-24 23:28N 40°48' W 073°52'4 8.1
2017-Sep-24 23:00N 40°47' W 073°56'3 6.3
2017-Sep-24 22:30N 40°44' W 073°58'3 6.2
2017-Sep-24 22:00N 40°41' W 074°01'3 6.7
2017-Sep-24 21:30N 40°39' W 074°04'3 7.0
2017-Sep-24 21:00N 40°39' W 074°08'3 6.0
2017-Sep-24 20:30N 40°38' W 074°12'3 5.3
2017-Sep-24 20:00N 40°35' W 074°13'0 0.0
2017-Sep-24 19:28N 40°35' W 074°13'0 0.0
2017-Sep-24 18:34N 40°35' W 074°13'0 0.0
2017-Sep-24 10:46N 40°35' W 074°13'0 0.0
2017-Sep-24 10:28N 40°35' W 074°13'0 0.0
2017-Sep-24 09:58N 40°35' W 074°13'0 0.0
2017-Sep-24 09:22N 40°35' W 074°13'0 0.0
2017-Sep-24 08:58N 40°35' W 074°13'0 0.0
2017-Sep-24 08:28N 40°35' W 074°13'0 0.0
2017-Sep-24 07:57N 40°35' W 074°13'0 0.0
2017-Sep-24 07:27N 40°35' W 074°13'0 0.0
2017-Sep-24 06:51N 40°35' W 074°13'0 0.0
2017-Sep-24 06:27N 40°35' W 074°13'0 0.0
2017-Sep-24 05:54N 40°35' W 074°13'0 0.0
2017-Sep-24 05:27N 40°35' W 074°13'0 0.0
2017-Sep-24 04:57N 40°35' W 074°13'0 0.0
2017-Sep-24 04:03N 40°35' W 074°13'0 0.0
2017-Sep-24 03:57N 40°35' W 074°13'0 0.0
2017-Sep-24 03:27N 40°35' W 074°13'0 0.0
2017-Sep-24 02:57N 40°35' W 074°13'0 0.0
2017-Sep-24 02:21N 40°35' W 074°13'0 0.0
2017-Sep-24 01:57N 40°35' W 074°13'0 0.0
2017-Sep-24 01:21N 40°35' W 074°13'0 0.0
2017-Sep-24 00:57N 40°35' W 074°13'0 0.0
2017-Sep-24 00:27N 40°35' W 074°13'0 0.0
2017-Sep-23 23:57N 40°35' W 074°13'0 0.0
2017-Sep-23 23:29N 40°35' W 074°13'1 1.6
2017-Sep-23 23:00N 40°34' W 074°13'3 5.2
2017-Sep-23 22:30N 40°32' W 074°15'0 0.0
2017-Sep-23 22:00N 40°32' W 074°15'0 0.0
2017-Sep-23 21:02N 40°32' W 074°15'0 0.0
2017-Sep-23 20:59N 40°32' W 074°15'0 0.0
2017-Sep-23 19:33N 40°32' W 074°15'150 3.6
2017-Sep-22 01:58N 41°48' W 071°24'0 0.0
2017-Sep-21 16:24N 41°48' W 071°24'0 0.0
2017-Sep-21 15:54N 41°48' W 071°24'1 2.3
2017-Sep-21 15:20N 41°47' W 071°23'3 9.3
2017-Sep-21 15:00N 41°44' W 071°22'610.9
2017-Sep-21 14:29N 41°39' W 071°19'810.2
2017-Sep-21 13:40N 41°31' W 071°21'48 9.9
2017-Sep-21 08:50N 41°11' W 072°18'513.9
2017-Sep-21 08:30N 41°10' W 072°24'713.6
2017-Sep-21 08:00N 41°08' W 072°33'612.8
2017-Sep-21 07:30N 41°07' W 072°41'5211.5
2017-Sep-21 03:01N 40°50' W 073°46'011.2
2017-Sep-21 02:59N 40°50' W 073°46'4 8.8
2017-Sep-21 02:30N 40°48' W 073°51'4 7.9
2017-Sep-21 01:59N 40°47' W 073°56'3 6.4
2017-Sep-21 01:30N 40°44' W 073°58'4 7.1
2017-Sep-21 01:00N 40°41' W 074°01'2 3.9
2017-Sep-21 00:30N 40°43' W 074°02'2 5.0
2017-Sep-21 00:00N 40°45' W 074°01'2 4.1
2017-Sep-20 23:30N 40°47' W 073°60'2 3.1
2017-Sep-20 23:00N 40°49' W 073°59'0 0.4
2017-Sep-20 22:30N 40°48' W 073°59'0 0.0
2017-Sep-20 22:00N 40°48' W 073°59'0 0.0
2017-Sep-20 21:30N 40°48' W 073°59'0 0.0
2017-Sep-20 21:00N 40°48' W 073°59'0 0.0
2017-Sep-20 20:30N 40°48' W 073°59'0 0.0
2017-Sep-20 20:00N 40°48' W 073°59'0 0.0
2017-Sep-20 19:30N 40°48' W 073°59'0 0.0
2017-Sep-20 19:00N 40°48' W 073°59'0 0.0
2017-Sep-20 18:30N 40°48' W 073°59'0 0.0
2017-Sep-20 18:00N 40°48' W 073°59'0 0.0
2017-Sep-20 17:30N 40°48' W 073°59'0 0.1
2017-Sep-20 17:00N 40°48' W 073°59'0 0.1
2017-Sep-20 16:30N 40°48' W 073°59'0 0.3
2017-Sep-20 16:00N 40°49' W 073°59'0 0.0
2017-Sep-20 15:30N 40°49' W 073°59'0 0.0
2017-Sep-20 15:00N 40°49' W 073°59'1 0.7
2017-Sep-20 14:00N 40°48' W 073°59'511.2
2017-Sep-20 13:30N 40°43' W 074°02'5 9.3
2017-Sep-20 13:00N 40°39' W 074°05'3 6.7
2017-Sep-20 12:30N 40°39' W 074°09'3 5.4
2017-Sep-20 12:00N 40°37' W 074°12'3 6.5
2017-Sep-20 11:30N 40°34' W 074°13'4 0.1
2017-Sep-18 21:53N 40°30' W 074°13'6 9.0
2017-Sep-18 21:16N 40°29' W 074°06'2 9.3
2017-Sep-18 21:00N 40°29' W 074°03'5 9.8
2017-Sep-18 20:30N 40°27' W 073°57'2 4.5
2017-Sep-18 20:00N 40°30' W 073°56'3 6.2
2017-Sep-18 19:30N 40°29' W 073°52'611.7
2017-Sep-18 18:59N 40°30' W 073°45'811.6
2017-Sep-18 18:16N 40°31' W 073°34'311.6
2017-Sep-18 17:59N 40°32' W 073°30'611.6
2017-Sep-18 17:28N 40°34' W 073°22'611.7
2017-Sep-18 16:58N 40°36' W 073°15'2111.7
2017-Sep-18 15:13N 40°42' W 072°49'8910.2
2017-Sep-18 06:30N 41°39' W 071°19'510.4
2017-Sep-18 05:58N 41°44' W 071°22'4 9.1
2017-Sep-18 05:30N 41°48' W 071°23'0 0.1
2017-Sep-17 22:29N 41°48' W 071°24'0 0.0
2017-Sep-17 21:46N 41°48' W 071°24'0 0.0
2017-Sep-17 21:29N 41°48' W 071°24'0 0.0
2017-Sep-17 20:58N 41°48' W 071°24'0 0.0
2017-Sep-17 01:52N 41°48' W 071°24'0 0.4
2017-Sep-17 01:29N 41°48' W 071°24'1 2.7
2017-Sep-17 00:59N 41°47' W 071°23'4 7.9
2017-Sep-17 00:30N 41°43' W 071°21'5 9.8
2017-Sep-17 00:00N 41°39' W 071°19'8 3.3
2017-Sep-16 21:33N 41°31' W 071°20'0 8.1
2017-Sep-16 21:30N 41°31' W 071°21'4 8.2
2017-Sep-16 21:00N 41°27' W 071°23'611.1
2017-Sep-16 20:30N 41°22' W 071°25'510.0
2017-Sep-16 20:01N 41°18' W 071°29'511.0
2017-Sep-16 19:31N 41°17' W 071°36'611.6
2017-Sep-16 19:01N 41°16' W 071°44'812.0
2017-Sep-16 18:21N 41°15' W 071°54'412.7
2017-Sep-16 18:00N 41°14' W 072°00'713.3
2017-Sep-16 17:30N 41°13' W 072°09'713.9
2017-Sep-16 16:58N 41°11' W 072°18'614.0
2017-Sep-16 16:31N 41°10' W 072°27'713.4
2017-Sep-16 16:01N 41°08' W 072°35'612.7
2017-Sep-16 15:30N 41°06' W 072°43'4811.4
2017-Sep-16 11:19N 40°53' W 073°44'411.0
2017-Sep-16 10:58N 40°49' W 073°47'4 8.7
2017-Sep-16 10:30N 40°48' W 073°52'4 9.0
2017-Sep-16 10:00N 40°46' W 073°57'510.9
2017-Sep-16 09:31N 40°41' W 074°01'510.0
2017-Sep-16 09:01N 40°39' W 074°06'0 0.4
2017-Sep-16 08:30N 40°39' W 074°07'0 0.0
2017-Sep-16 07:59N 40°39' W 074°07'0 0.0
2017-Sep-16 07:29N 40°39' W 074°07'0 0.0
2017-Sep-16 06:59N 40°39' W 074°07'0 0.0
2017-Sep-16 06:29N 40°39' W 074°07'0 0.0
2017-Sep-16 05:59N 40°39' W 074°07'0 0.0
2017-Sep-16 05:29N 40°39' W 074°07'0 0.0
2017-Sep-16 04:59N 40°39' W 074°07'0 0.0
2017-Sep-16 04:29N 40°39' W 074°07'0 0.1
2017-Sep-16 03:59N 40°39' W 074°07'0 0.1
2017-Sep-16 03:29N 40°39' W 074°07'0 0.0
2017-Sep-16 02:59N 40°39' W 074°07'0 0.0
2017-Sep-16 02:29N 40°39' W 074°07'0 0.0
2017-Sep-16 01:59N 40°39' W 074°07'0 0.0
2017-Sep-16 01:29N 40°39' W 074°07'0 0.0
2017-Sep-16 00:59N 40°39' W 074°07'0 0.0
2017-Sep-16 00:29N 40°39' W 074°07'0 0.0
2017-Sep-15 23:59N 40°39' W 074°07'0 0.0
2017-Sep-15 23:29N 40°39' W 074°07'0 0.0
2017-Sep-15 22:59N 40°39' W 074°07'0 0.0
2017-Sep-15 22:29N 40°39' W 074°07'0 0.0
2017-Sep-15 21:59N 40°39' W 074°07'0 0.0
2017-Sep-15 21:29N 40°39' W 074°07'0 0.0
2017-Sep-15 20:59N 40°39' W 074°07'1 1.8
2017-Sep-15 20:26N 40°38' W 074°08'0 0.0
2017-Sep-15 19:56N 40°38' W 074°08'0 0.0
2017-Sep-15 19:26N 40°38' W 074°08'0 0.0
2017-Sep-15 18:56N 40°38' W 074°08'0 0.0
2017-Sep-15 18:26N 40°38' W 074°08'0 0.0
2017-Sep-15 17:56N 40°38' W 074°08'0 0.1
2017-Sep-15 17:30N 40°39' W 074°08'1 1.7
2017-Sep-15 16:58N 40°39' W 074°07'0 0.0
2017-Sep-15 16:28N 40°39' W 074°07'0 0.0
2017-Sep-15 15:58N 40°39' W 074°07'0 0.0
2017-Sep-15 15:30N 40°39' W 074°07'0 0.0
2017-Sep-15 15:00N 40°39' W 074°07'0 0.1
2017-Sep-15 14:30N 40°39' W 074°07'2 4.2
2017-Sep-15 14:00N 40°39' W 074°04'2 4.0
2017-Sep-15 13:30N 40°37' W 074°03'0 0.8
2017-Sep-15 13:01N 40°37' W 074°03'1 1.4
2017-Sep-15 12:30N 40°36' W 074°02'1 1.1
2017-Sep-15 12:00N 40°36' W 074°03'3 5.9
2017-Sep-15 11:30N 40°39' W 074°04'3 6.8
2017-Sep-15 11:00N 40°39' W 074°09'3 5.1
2017-Sep-15 10:30N 40°38' W 074°12'2 4.8
2017-Sep-15 10:00N 40°36' W 074°12'  

Dump ship's entire track history